createdAt,value
2023-10-25T00:02:10.073Z,3.67
2023-10-25T00:04:39.399Z,5.17
2023-10-25T00:07:07.435Z,7.50
2023-10-25T00:09:35.438Z,4.60
2023-10-25T00:12:03.474Z,5.10
2023-10-25T00:14:31.396Z,12.23
2023-10-25T00:16:59.408Z,14.40
2023-10-25T00:19:27.502Z,13.27
2023-10-25T00:21:56.794Z,10.50
2023-10-25T00:24:25.070Z,10.57
2023-10-25T00:26:53.153Z,7.20
2023-10-25T00:29:21.082Z,5.80
2023-10-25T00:31:49.047Z,4.83
2023-10-25T00:34:17.112Z,5.63
2023-10-25T00:36:45.071Z,5.47
2023-10-25T00:39:14.338Z,4.17
2023-10-25T00:41:42.227Z,4.90
2023-10-25T00:44:10.103Z,4.60
2023-10-25T00:46:38.929Z,5.17
2023-10-25T00:49:08.682Z,5.70
2023-10-25T00:51:38.014Z,6.67
2023-10-25T00:54:06.686Z,5.50
2023-10-25T00:56:36.375Z,4.83
2023-10-25T00:59:04.573Z,4.40
2023-10-25T01:01:32.815Z,6.40
2023-10-25T01:04:00.888Z,5.23
2023-10-25T01:06:28.856Z,9.87
2023-10-25T01:08:56.798Z,5.93
2023-10-25T01:11:24.896Z,8.20
2023-10-25T01:13:54.219Z,12.97
2023-10-25T01:16:22.212Z,9.07
2023-10-25T01:18:50.209Z,10.60
2023-10-25T01:21:18.565Z,14.97
2023-10-25T01:23:52.951Z,12.20
2023-10-25T01:26:20.975Z,9.63
2023-10-25T01:28:48.894Z,13.33
2023-10-25T01:31:16.941Z,11.77
2023-10-25T01:33:45.972Z,13.83
2023-10-25T01:36:13.937Z,15.80
2023-10-25T01:38:41.852Z,11.33
2023-10-25T01:41:17.015Z,13.60
2023-10-25T01:43:45.297Z,14.23
2023-10-25T01:46:13.536Z,15.80
2023-10-25T01:48:41.662Z,11.23
2023-10-25T01:51:11.009Z,15.93
2023-10-25T01:53:39.310Z,12.60
2023-10-25T01:56:07.286Z,18.47
2023-10-25T01:58:36.584Z,12.90
2023-10-25T02:01:07.645Z,16.07
2023-10-25T02:03:35.893Z,15.73
2023-10-25T02:06:13.148Z,16.37
2023-10-25T02:08:41.109Z,14.33
2023-10-25T02:11:09.563Z,12.30
2023-10-25T02:13:39.344Z,13.50
2023-10-25T02:16:15.690Z,14.47
2023-10-25T02:18:43.729Z,14.50
2023-10-25T02:21:11.968Z,18.33
2023-10-25T02:23:41.302Z,12.03
2023-10-25T02:26:09.343Z,14.60
2023-10-25T02:28:38.622Z,24.53
2023-10-25T02:31:06.628Z,12.77
2023-10-25T02:33:34.638Z,15.43
2023-10-25T02:36:02.609Z,21.80
2023-10-25T02:38:30.666Z,15.37
2023-10-25T02:40:58.628Z,13.47
2023-10-25T02:43:26.533Z,11.57
2023-10-25T02:46:02.082Z,10.00
2023-10-25T02:48:30.230Z,13.03
2023-10-25T02:51:01.182Z,10.97
2023-10-25T02:53:29.174Z,9.13
2023-10-25T02:56:00.708Z,8.97
2023-10-25T02:58:29.167Z,8.90
2023-10-25T03:00:59.260Z,10.17
2023-10-25T03:03:29.368Z,11.13
2023-10-25T03:05:57.434Z,9.73
2023-10-25T03:08:26.022Z,9.27
2023-10-25T03:10:53.966Z,8.97
2023-10-25T03:13:21.988Z,8.33
2023-10-25T03:15:50.247Z,10.23
2023-10-25T03:18:20.001Z,8.23
2023-10-25T03:20:47.936Z,7.97
2023-10-25T03:23:15.804Z,9.57
2023-10-25T03:25:43.674Z,10.57
2023-10-25T03:28:11.664Z,10.43
2023-10-25T03:30:39.648Z,9.30
2023-10-25T03:33:07.677Z,8.77
2023-10-25T03:35:37.007Z,11.53
2023-10-25T03:38:04.919Z,13.43
2023-10-25T03:40:32.868Z,15.30
2023-10-25T03:43:00.849Z,11.87
2023-10-25T03:45:28.775Z,12.50
2023-10-25T03:47:56.778Z,13.23
2023-10-25T03:50:26.764Z,15.67
2023-10-25T03:52:56.074Z,17.27
2023-10-25T03:55:24.049Z,11.73
2023-10-25T03:57:52.273Z,20.43
2023-10-25T04:00:20.373Z,13.93
2023-10-25T04:02:48.595Z,15.77
2023-10-25T04:05:16.754Z,14.20
2023-10-25T04:07:44.691Z,17.83
2023-10-25T04:10:13.931Z,17.60
2023-10-25T04:12:41.920Z,16.53
2023-10-25T04:15:10.756Z,20.60
2023-10-25T04:17:38.717Z,17.40
2023-10-25T04:20:08.322Z,16.57
2023-10-25T04:22:37.123Z,16.93
2023-10-25T04:25:05.730Z,16.13
2023-10-25T04:27:34.953Z,14.60
2023-10-25T04:30:05.337Z,17.33
2023-10-25T04:32:34.699Z,18.20
2023-10-25T04:35:02.643Z,19.70
2023-10-25T04:37:30.564Z,18.63
2023-10-25T04:39:58.497Z,26.87
2023-10-25T04:42:26.425Z,16.97
2023-10-25T04:44:55.703Z,16.17
2023-10-25T04:47:23.605Z,18.60
2023-10-25T04:49:51.720Z,29.13
2023-10-25T04:52:20.392Z,17.37
2023-10-25T04:54:49.009Z,19.80
2023-10-25T04:57:18.116Z,24.90
2023-10-25T04:59:46.042Z,20.27
2023-10-25T05:02:15.388Z,21.00
2023-10-25T05:04:43.417Z,21.63
2023-10-25T05:07:11.925Z,19.03
2023-10-25T05:09:40.500Z,17.87
2023-10-25T05:12:12.235Z,27.17
2023-10-25T05:14:40.566Z,22.60
2023-10-25T05:17:10.603Z,27.67
2023-10-25T05:19:40.704Z,18.97
2023-10-25T05:22:13.466Z,24.57
2023-10-25T05:24:42.113Z,21.80
2023-10-25T05:27:10.980Z,19.73
2023-10-25T05:29:39.722Z,16.87
2023-10-25T05:32:09.659Z,18.27
2023-10-25T05:34:39.578Z,26.50
2023-10-25T05:37:08.395Z,20.73
2023-10-25T05:39:36.931Z,19.50
2023-10-25T05:42:07.144Z,25.63
2023-10-25T05:44:35.585Z,18.92
2023-10-25T05:47:03.614Z,20.75
2023-10-25T05:49:32.220Z,25.83
2023-10-25T05:52:02.091Z,17.07
2023-10-25T05:54:30.352Z,19.83
2023-10-25T05:56:58.876Z,18.10
2023-10-25T05:59:27.410Z,22.93
2023-10-25T06:02:04.297Z,19.13
2023-10-25T06:04:35.528Z,23.77
2023-10-25T06:07:05.575Z,24.30
2023-10-25T06:09:34.162Z,29.03
2023-10-25T06:12:04.084Z,30.37
2023-10-25T06:14:32.384Z,33.97
2023-10-25T06:17:01.151Z,33.50
2023-10-25T06:19:29.824Z,27.50
2023-10-25T06:21:58.034Z,30.93
2023-10-25T06:24:27.498Z,34.77
2023-10-25T06:26:55.353Z,23.15
2023-10-25T06:29:23.283Z,23.60
2023-10-25T06:31:52.533Z,29.23
2023-10-25T06:34:21.243Z,28.30
2023-10-25T06:36:50.269Z,29.80
2023-10-25T06:39:18.843Z,20.63
2023-10-25T06:41:48.706Z,17.20
2023-10-25T06:44:17.566Z,24.97
2023-10-25T06:46:46.216Z,20.83
2023-10-25T06:49:14.809Z,24.07
2023-10-25T06:51:44.009Z,24.07
2023-10-25T06:54:13.255Z,23.03
2023-10-25T06:56:41.936Z,20.42
2023-10-25T06:59:12.407Z,23.23
2023-10-25T07:01:44.805Z,22.90
2023-10-25T07:04:16.158Z,21.77
2023-10-25T07:06:47.457Z,19.17
2023-10-25T07:09:16.600Z,19.33
2023-10-25T07:11:44.602Z,22.23
2023-10-25T07:14:14.013Z,22.08
2023-10-25T07:16:42.719Z,17.87
2023-10-25T07:19:10.797Z,23.17
2023-10-25T07:21:38.811Z,22.57
2023-10-25T07:24:07.716Z,18.63
2023-10-25T07:26:35.808Z,22.53
2023-10-25T07:29:03.755Z,17.40
2023-10-25T07:31:33.230Z,15.90
2023-10-25T07:34:01.405Z,13.45
2023-10-25T07:36:29.402Z,15.63
2023-10-25T07:38:58.512Z,18.33
2023-10-25T07:41:26.443Z,13.70
2023-10-25T07:43:54.660Z,11.13
2023-10-25T07:46:22.691Z,14.23
2023-10-25T07:48:52.248Z,12.15
2023-10-25T07:51:20.369Z,9.00
2023-10-25T07:53:48.450Z,11.60
2023-10-25T07:58:48.922Z,10.13
2023-10-25T08:01:17.022Z,9.65
2023-10-25T08:03:45.285Z,6.10
2023-10-25T08:06:15.266Z,6.45
2023-10-25T08:08:43.375Z,7.90
2023-10-25T08:11:11.433Z,28.20
2023-10-25T08:13:41.366Z,7.40
2023-10-25T08:16:09.832Z,8.32
2023-10-25T08:18:38.180Z,5.45
2023-10-25T08:21:06.401Z,5.07
2023-10-25T08:23:35.983Z,6.47
2023-10-25T08:26:05.292Z,4.88
2023-10-25T08:28:33.534Z,4.32
2023-10-25T08:31:01.447Z,7.38
2023-10-25T08:33:29.675Z,6.72
2023-10-25T08:36:03.973Z,4.45
2023-10-25T08:38:31.953Z,4.65
2023-10-25T08:41:05.142Z,4.93
2023-10-25T08:43:34.736Z,3.63
2023-10-25T08:46:04.253Z,4.68
2023-10-25T08:48:33.512Z,5.53
2023-10-25T08:51:02.275Z,4.22
2023-10-25T08:53:31.818Z,4.75
2023-10-25T08:56:00.678Z,3.65
2023-10-25T08:58:30.495Z,3.60
2023-10-25T09:00:58.998Z,3.42
2023-10-25T09:03:41.038Z,5.85
2023-10-25T09:06:11.151Z,5.82
2023-10-25T09:08:40.705Z,5.05
2023-10-25T09:11:10.710Z,5.15
2023-10-25T09:13:43.466Z,6.95
2023-10-25T09:16:13.718Z,4.93
2023-10-25T09:18:43.433Z,6.00
2023-10-25T09:21:13.670Z,5.72
2023-10-25T09:23:42.921Z,6.43
2023-10-25T09:26:19.358Z,6.28
2023-10-25T09:28:54.532Z,4.03
2023-10-25T09:31:25.822Z,6.80
2023-10-25T09:33:54.376Z,4.80
2023-10-25T09:36:22.894Z,6.50
2023-10-25T09:38:52.347Z,4.43
2023-10-25T09:41:21.046Z,7.90
2023-10-25T09:43:51.488Z,5.10
2023-10-25T09:46:21.742Z,4.43
2023-10-25T09:48:57.591Z,5.18
2023-10-25T09:51:52.948Z,5.20
2023-10-25T09:54:25.902Z,5.05
2023-10-25T09:56:56.415Z,4.05
2023-10-25T09:59:28.445Z,4.38
2023-10-25T10:01:57.711Z,6.43
2023-10-25T10:04:33.825Z,5.07
2023-10-25T10:07:10.434Z,5.43
2023-10-25T10:09:46.498Z,5.80
2023-10-25T10:12:15.417Z,4.93
2023-10-25T10:14:45.018Z,5.43
2023-10-25T10:17:15.433Z,4.88
2023-10-25T10:19:45.486Z,5.00
2023-10-25T10:22:15.124Z,4.30
2023-10-25T10:24:48.098Z,4.03
2023-10-25T10:27:17.560Z,6.60
2023-10-25T10:29:48.969Z,4.47
2023-10-25T10:32:18.156Z,5.93
2023-10-25T10:34:47.779Z,5.47
2023-10-25T10:37:17.573Z,4.70
2023-10-25T10:40:22.189Z,7.28
2023-10-25T10:42:50.195Z,5.25
2023-10-25T10:45:21.052Z,5.82
2023-10-25T10:47:54.910Z,5.13
2023-10-25T10:50:24.305Z,7.80
2023-10-25T10:52:53.451Z,4.78
2023-10-25T10:55:22.962Z,5.95
2023-10-25T11:00:27.024Z,5.95
2023-10-25T11:02:55.570Z,5.78
2023-10-25T11:05:24.612Z,6.00
2023-10-25T11:07:54.653Z,7.20
2023-10-25T11:10:23.137Z,8.40
2023-10-25T11:12:51.272Z,6.00
2023-10-25T11:15:20.957Z,5.87
2023-10-25T11:17:50.281Z,7.15
2023-10-25T11:20:18.210Z,6.07
2023-10-25T11:22:47.523Z,7.72
2023-10-25T11:25:21.805Z,7.13
2023-10-25T11:27:49.786Z,6.00
2023-10-25T11:30:17.709Z,5.68
2023-10-25T11:32:45.695Z,6.72
2023-10-25T11:35:24.714Z,5.78
2023-10-25T11:37:53.934Z,5.72
2023-10-25T11:40:22.608Z,5.55
2023-10-25T11:42:51.560Z,4.95
2023-10-25T11:45:20.614Z,3.83
2023-10-25T11:47:50.343Z,5.68
2023-10-25T11:50:18.431Z,4.90
2023-10-25T11:52:47.767Z,3.47
2023-10-25T11:55:16.124Z,2.93
2023-10-25T11:57:44.286Z,2.70
2023-10-25T12:00:13.455Z,3.35
2023-10-25T12:02:43.086Z,2.95
2023-10-25T12:05:11.814Z,4.00
2023-10-25T12:07:39.878Z,2.08
2023-10-25T12:10:10.769Z,3.10
2023-10-25T12:12:39.799Z,6.90
2023-10-25T12:15:09.637Z,6.07
2023-10-25T12:17:37.703Z,2.90
2023-10-25T12:20:22.402Z,4.43
2023-10-25T12:22:54.295Z,4.05
2023-10-25T12:25:23.877Z,1.98
2023-10-25T12:27:51.904Z,2.40
2023-10-25T12:30:19.969Z,1.95
2023-10-25T12:32:47.992Z,2.15
2023-10-25T12:35:16.167Z,1.85
2023-10-25T12:37:44.008Z,3.08
2023-10-25T12:40:12.855Z,1.90
2023-10-25T12:42:42.170Z,2.03
2023-10-25T12:45:10.579Z,2.85
2023-10-25T12:47:38.649Z,2.45
2023-10-25T12:50:07.949Z,4.97
2023-10-25T12:52:35.923Z,2.75
2023-10-25T12:55:04.204Z,2.63
2023-10-25T12:57:32.121Z,1.83
2023-10-25T13:00:01.454Z,1.80
2023-10-25T13:02:29.434Z,1.50
2023-10-25T13:04:57.326Z,1.40
2023-10-25T13:07:25.560Z,2.55
2023-10-25T13:09:56.176Z,4.25
2023-10-25T13:12:24.835Z,8.00
2023-10-25T13:14:54.084Z,8.55
2023-10-25T13:17:23.414Z,9.95
2023-10-25T13:19:51.455Z,9.23
2023-10-25T13:22:21.126Z,6.63
2023-10-25T13:24:50.377Z,3.55
2023-10-25T13:27:18.323Z,9.63
2023-10-25T13:29:46.489Z,10.65
2023-10-25T13:32:14.708Z,14.55
2023-10-25T13:34:45.579Z,6.43
2023-10-25T13:37:13.686Z,6.93
2023-10-25T13:39:42.227Z,11.90
2023-10-25T13:42:11.484Z,31.00
2023-10-25T13:44:39.504Z,23.05
2023-10-25T13:47:08.173Z,3.85
2023-10-25T13:49:36.044Z,13.00
2023-10-25T13:52:05.809Z,8.82
2023-10-25T13:54:33.808Z,4.25
2023-10-25T13:57:01.851Z,2.55
2023-10-25T13:59:29.825Z,2.97
2023-10-25T14:01:57.893Z,2.33
2023-10-25T14:04:25.895Z,2.35
2023-10-25T14:06:53.810Z,2.65
2023-10-25T14:09:23.770Z,2.58
2023-10-25T14:11:52.651Z,1.88
2023-10-25T14:14:21.358Z,2.40
2023-10-25T14:16:49.304Z,2.50
2023-10-25T14:19:18.443Z,2.58
2023-10-25T14:21:46.349Z,2.53
2023-10-25T14:24:14.971Z,4.03
2023-10-25T14:26:44.239Z,1.80
2023-10-25T14:29:12.606Z,2.15
2023-10-25T14:31:41.034Z,2.35
2023-10-25T14:34:09.186Z,2.80
2023-10-25T14:36:37.458Z,2.25
2023-10-25T14:39:05.776Z,1.83
2023-10-25T14:41:34.159Z,3.67
2023-10-25T14:44:04.820Z,2.55
2023-10-25T14:46:32.998Z,2.45
2023-10-25T14:49:00.958Z,3.03
2023-10-25T14:51:28.975Z,2.28
2023-10-25T14:53:57.603Z,4.75
2023-10-25T14:56:26.023Z,2.15
2023-10-25T14:58:56.048Z,2.05
2023-10-25T15:01:27.755Z,2.78
2023-10-25T15:03:56.227Z,3.92
2023-10-25T15:06:29.541Z,2.50
2023-10-25T15:08:58.472Z,2.40
2023-10-25T15:11:26.548Z,2.38
2023-10-25T15:13:54.550Z,3.22
2023-10-25T15:16:23.124Z,2.45
2023-10-25T15:18:52.588Z,2.38
2023-10-25T15:21:21.740Z,3.90
2023-10-25T15:23:50.818Z,3.10
2023-10-25T15:26:18.798Z,4.05
2023-10-25T15:28:46.809Z,2.40
2023-10-25T15:31:16.345Z,3.15
2023-10-25T15:33:44.401Z,3.95
2023-10-25T15:36:14.932Z,3.67
2023-10-25T15:38:44.515Z,2.80
2023-10-25T15:41:20.709Z,2.97
2023-10-25T15:43:48.972Z,3.22
2023-10-25T15:46:17.684Z,2.90
2023-10-25T15:48:47.422Z,3.22
2023-10-25T15:51:17.211Z,5.72
2023-10-25T15:53:45.431Z,2.83
2023-10-25T15:56:15.068Z,2.83
2023-10-25T15:58:43.927Z,3.83
2023-10-25T16:01:13.243Z,2.50
2023-10-25T16:03:42.205Z,4.20
2023-10-25T16:06:11.734Z,5.10
2023-10-25T16:08:42.207Z,2.92
2023-10-25T16:11:11.020Z,4.22
2023-10-25T16:13:39.404Z,3.15
2023-10-25T16:16:09.124Z,3.00
2023-10-25T16:18:37.989Z,4.75
2023-10-25T16:21:07.990Z,2.20
2023-10-25T16:23:42.422Z,3.38
2023-10-25T16:26:13.081Z,3.15
2023-10-25T16:28:41.826Z,2.92
2023-10-25T16:31:10.061Z,3.45
2023-10-25T16:33:39.115Z,2.80
2023-10-25T16:36:09.998Z,3.03
2023-10-25T16:38:38.675Z,4.22
2023-10-25T16:41:07.733Z,7.38
2023-10-25T16:43:38.452Z,10.30
2023-10-25T16:46:08.039Z,5.18
2023-10-25T16:48:37.468Z,4.97
2023-10-25T16:51:13.548Z,4.57
2023-10-25T16:53:44.407Z,4.32
2023-10-25T16:56:12.948Z,3.22
2023-10-25T16:58:42.485Z,3.75
2023-10-25T17:01:13.046Z,4.93
2023-10-25T17:03:42.300Z,7.97
2023-10-25T17:06:12.431Z,8.65
2023-10-25T17:08:41.237Z,7.25
2023-10-25T17:11:10.310Z,4.10
2023-10-25T17:13:39.438Z,6.75
2023-10-25T17:16:10.200Z,6.13
2023-10-25T17:18:41.544Z,8.85
2023-10-25T17:21:15.353Z,10.45
2023-10-25T17:23:44.425Z,7.30
2023-10-25T17:26:13.103Z,5.97
2023-10-25T17:28:42.112Z,7.35
2023-10-25T17:31:11.558Z,7.28
2023-10-25T17:33:39.458Z,6.47
2023-10-25T17:36:09.519Z,8.23
2023-10-25T17:38:37.721Z,5.72
2023-10-25T17:41:06.363Z,5.28
2023-10-25T17:43:34.328Z,9.82
2023-10-25T17:48:34.935Z,8.38
2023-10-25T17:51:06.782Z,6.78
2023-10-25T17:53:34.808Z,8.45
2023-10-25T17:56:02.981Z,3.80
2023-10-25T17:58:30.916Z,5.13
2023-10-25T18:00:58.960Z,4.88
2023-10-25T18:03:27.076Z,5.20
2023-10-25T18:05:56.654Z,8.95
2023-10-25T18:08:25.410Z,8.02
2023-10-25T18:10:55.333Z,8.73
2023-10-25T18:13:24.724Z,6.63
2023-10-25T18:15:53.180Z,8.70
2023-10-25T18:18:21.824Z,4.63
2023-10-25T18:20:51.494Z,4.38
2023-10-25T18:23:22.509Z,4.80
2023-10-25T18:25:50.878Z,6.63
2023-10-25T18:28:18.882Z,3.33
2023-10-25T18:31:56.853Z,6.85
2023-10-25T18:33:43.968Z,2.78
2023-10-25T18:36:12.555Z,3.17
2023-10-25T18:38:42.129Z,3.53
2023-10-25T18:41:10.061Z,3.47
2023-10-25T18:43:38.070Z,5.32
2023-10-25T18:46:07.283Z,4.80
2023-10-25T18:48:35.553Z,3.42
2023-10-25T18:51:10.258Z,5.13
2023-10-25T18:53:38.248Z,5.63
2023-10-25T18:56:08.309Z,3.80
2023-10-25T18:58:36.349Z,3.88
2023-10-25T19:01:15.204Z,3.25
2023-10-25T19:03:43.319Z,3.80
2023-10-25T19:06:25.163Z,3.63
2023-10-25T19:08:58.634Z,5.43
2023-10-25T19:11:29.401Z,3.42
2023-10-25T19:13:58.484Z,3.65
2023-10-25T19:16:27.378Z,4.60
2023-10-25T19:18:55.761Z,3.90
2023-10-25T19:21:23.670Z,4.72
2023-10-25T19:23:55.569Z,3.40
2023-10-25T19:26:27.713Z,4.00
2023-10-25T19:29:03.219Z,3.65
2023-10-25T19:31:34.520Z,3.40
2023-10-25T19:34:02.841Z,3.10
2023-10-25T19:36:30.993Z,3.72
2023-10-25T19:39:05.067Z,4.22
2023-10-25T19:41:33.252Z,4.25
2023-10-25T19:44:05.800Z,4.45
2023-10-25T19:46:36.566Z,4.70
2023-10-25T19:49:05.798Z,4.57
2023-10-25T19:51:35.348Z,4.43
2023-10-25T19:54:03.533Z,5.07
2023-10-25T19:56:31.552Z,5.22
2023-10-25T19:58:59.500Z,4.43
2023-10-25T20:01:28.880Z,4.82
2023-10-25T20:03:57.015Z,5.13
2023-10-25T20:06:25.202Z,4.68
2023-10-25T20:08:53.185Z,4.30
2023-10-25T20:11:21.712Z,5.97
2023-10-25T20:13:49.907Z,4.05
2023-10-25T20:16:18.033Z,4.10
2023-10-25T20:18:48.428Z,3.00
2023-10-25T20:21:16.385Z,3.25
2023-10-25T20:23:44.725Z,2.80
2023-10-25T20:26:25.791Z,2.47
2023-10-25T20:28:58.375Z,2.67
2023-10-25T20:31:26.384Z,2.15
2023-10-25T20:33:55.739Z,1.00
2023-10-25T20:36:24.187Z,0.95
2023-10-25T20:38:52.065Z,0.57
2023-10-25T20:41:20.074Z,1.23
2023-10-25T20:43:48.650Z,0.43
2023-10-25T20:46:16.572Z,0.35
2023-10-25T20:48:44.557Z,0.40
2023-10-25T20:51:13.936Z,2.40
2023-10-25T20:53:41.927Z,1.35
2023-10-25T20:56:09.981Z,0.65
2023-10-25T20:58:37.824Z,0.82
2023-10-25T21:01:07.118Z,0.70
2023-10-25T21:03:35.445Z,0.10
2023-10-25T21:06:03.395Z,0.28
2023-10-25T21:08:32.649Z,0.10
2023-10-25T21:11:01.141Z,0.50
2023-10-25T21:13:29.083Z,0.10
2023-10-25T21:15:57.065Z,0.10
2023-10-25T21:18:25.872Z,0.85
2023-10-25T21:20:54.035Z,0.03
2023-10-25T21:23:21.930Z,0.10
2023-10-25T21:25:51.275Z,0.10
2023-10-25T21:28:19.273Z,0.10
2023-10-25T21:30:47.179Z,1.75
2023-10-25T21:33:15.151Z,0.20
2023-10-25T21:35:43.197Z,0.10
2023-10-25T21:38:11.124Z,0.08
2023-10-25T21:40:40.895Z,0.10
2023-10-25T21:43:10.104Z,0.10
2023-10-25T21:45:37.991Z,0.00
2023-10-25T21:48:06.401Z,0.10
2023-10-25T21:50:34.354Z,0.08
2023-10-25T21:53:02.366Z,0.03
2023-10-25T21:55:31.972Z,0.03
2023-10-25T21:59:46.632Z,0.10
2023-10-25T22:00:50.261Z,0.00
2023-10-25T22:03:18.628Z,0.00
2023-10-25T22:05:48.073Z,0.10
2023-10-25T22:08:16.102Z,0.10
2023-10-25T22:10:44.213Z,0.13
2023-10-25T22:13:13.443Z,1.13
2023-10-25T22:15:41.642Z,0.20
2023-10-25T22:18:10.903Z,0.10
2023-10-25T22:20:38.951Z,0.87
2023-10-25T22:23:06.824Z,0.00
2023-10-25T22:25:36.381Z,0.20
2023-10-25T22:28:04.919Z,0.10
2023-10-25T22:30:32.792Z,0.52
2023-10-25T22:33:00.714Z,0.17
2023-10-25T22:35:30.314Z,0.17
2023-10-25T22:37:58.200Z,1.40
2023-10-25T22:40:26.079Z,0.10
2023-10-25T22:42:53.930Z,0.07
2023-10-25T22:45:22.444Z,0.10
2023-10-25T22:47:50.398Z,0.15
2023-10-25T22:50:18.483Z,0.20
2023-10-25T22:52:47.744Z,0.00
2023-10-25T22:55:15.831Z,0.10
2023-10-25T22:57:43.733Z,0.10
2023-10-25T23:00:13.023Z,0.10
2023-10-25T23:02:41.489Z,0.55
2023-10-25T23:05:10.095Z,0.13
2023-10-25T23:07:38.012Z,0.30
2023-10-25T23:10:08.403Z,0.20
2023-10-25T23:12:36.348Z,1.40
2023-10-25T23:15:04.513Z,0.20
2023-10-25T23:17:32.554Z,0.20
2023-10-25T23:20:00.511Z,0.20
2023-10-25T23:22:28.386Z,0.10
2023-10-25T23:24:56.244Z,0.10
2023-10-25T23:27:26.304Z,0.10
2023-10-25T23:29:54.254Z,0.37
2023-10-25T23:32:22.204Z,0.22
2023-10-25T23:34:50.157Z,0.88
2023-10-25T23:37:18.232Z,0.57
2023-10-25T23:39:46.111Z,0.47
2023-10-25T23:42:14.427Z,0.00
2023-10-25T23:44:44.092Z,0.73
2023-10-25T23:47:12.157Z,0.10
2023-10-25T23:49:40.084Z,1.23
2023-10-25T23:52:08.346Z,0.20
2023-10-25T23:54:55.883Z,0.10
2023-10-25T23:57:24.256Z,0.20
2023-10-25T23:59:53.682Z,0.63
